CPX322 Details

Departure: Lehigh Valley International Airport (KABE)
Arrival: Chicago/Rockford International Airport (KRFD)
Route: PSB J60 JOT V171 RFD


Current Weather Information
KABE 221151Z 31012G18KT 8SM -RA FEW019 OVC024 05/01 A2945 RMK AO2 SLP975 P0004 60034 70138 T00500011 10072 20050 53013
KRFD 221154Z 34005KT 10SM CLR 01/M02 A3005 RMK AO2 SLP182 T00061017 10039 20006 53024